Sea Reliance — WEOB — position and weather

sailwx.info

Track history (hours):
 
Tides and Currents Weather Stations Pressure Air Temp Water Temp Dewpoint Dewpoint Depression Visibility Wind Speed Wind Dir Waves Ship Positions

Sea Reliance

Owner: Intrepid Ship Management, Seattle, WA. More information available from US FCC via Universal Licensing System and Coast Guard Vessel Documentation Center.

Last reported at 2017-Sep-24 04:30 UTC. Time now 2017-Sep-24 04:56 UTC.
Position N 37°46' W 122°21'.

Type: Ship. MMSI: 369567000.

Date/timePositionNaut miles runAvg speedWind from/ knotsBaromVisibWave heightAir tempDewpointWater temp
2017-Sep-24 04:30N 37°46' W 122°21'0 0.0
2017-Sep-24 04:00N 37°46' W 122°21'0 0.0
2017-Sep-24 03:30N 37°46' W 122°21'0 0.0
2017-Sep-24 03:00N 37°46' W 122°21'0 0.0
2017-Sep-24 02:30N 37°46' W 122°21'0 0.0
2017-Sep-24 02:00N 37°46' W 122°21'0 0.0
2017-Sep-24 01:30N 37°46' W 122°21'0 0.0
2017-Sep-24 01:00N 37°46' W 122°21'0 0.0
2017-Sep-24 00:30N 37°46' W 122°21'0 0.1
2017-Sep-24 00:00N 37°46' W 122°21'0 0.1
2017-Sep-23 23:30N 37°46' W 122°21'0 0.1
2017-Sep-23 22:57N 37°46' W 122°21'0 0.3
2017-Sep-23 22:30N 37°46' W 122°21'0 0.1
2017-Sep-23 22:00N 37°46' W 122°21'0 0.0
2017-Sep-23 21:30N 37°46' W 122°21'0 0.0
2017-Sep-23 21:00N 37°46' W 122°21'0 0.0
2017-Sep-23 20:30N 37°46' W 122°21'0 0.0
2017-Sep-23 20:00N 37°46' W 122°21'  
2017-Sep-21 05:07N 38°02' W 122°08'2 5.2
2017-Sep-21 04:45N 38°03' W 122°11'2 9.7
2017-Sep-21 04:30N 38°04' W 122°13'5 9.9
2017-Sep-21 04:01N 38°03' W 122°20'610.2
2017-Sep-21 03:28N 37°60' W 122°25'4 8.6
2017-Sep-21 03:00N 37°56' W 122°26'5 9.6
2017-Sep-21 02:31N 37°51' W 122°25'510.2
2017-Sep-21 02:00N 37°47' W 122°21'1 1.6
2017-Sep-21 01:30N 37°46' W 122°20'0 0.0
2017-Sep-21 00:58N 37°46' W 122°20'0 0.0
2017-Sep-21 00:28N 37°46' W 122°20'0 0.0
2017-Sep-20 23:58N 37°46' W 122°20'0 0.0
2017-Sep-20 23:28N 37°46' W 122°20'0 0.0
2017-Sep-20 22:58N 37°46' W 122°20'0 0.0
2017-Sep-20 22:28N 37°46' W 122°20'0 0.0
2017-Sep-20 21:58N 37°46' W 122°20'0 0.0
2017-Sep-20 21:28N 37°46' W 122°20'0 0.4
2017-Sep-20 20:58N 37°46' W 122°20'0 0.1
2017-Sep-20 20:28N 37°46' W 122°20'0 0.0
2017-Sep-20 19:58N 37°46' W 122°20'0 0.0
2017-Sep-20 19:28N 37°46' W 122°20'0 0.0
2017-Sep-20 18:58N 37°46' W 122°20'0 0.0
2017-Sep-20 18:25N 37°46' W 122°20'0 0.0
2017-Sep-20 17:58N 37°46' W 122°20'0 0.0
2017-Sep-20 17:28N 37°46' W 122°20'0 0.0
2017-Sep-20 16:58N 37°46' W 122°20'0 0.0
2017-Sep-20 16:28N 37°46' W 122°20'0 0.0
2017-Sep-20 15:58N 37°46' W 122°20'0 0.0
2017-Sep-20 15:28N 37°46' W 122°20'0 0.0
2017-Sep-20 14:58N 37°46' W 122°20'0 0.2
2017-Sep-20 14:00N 37°46' W 122°20'4 7.7
2017-Sep-20 13:30N 37°49' W 122°24'4 8.9
2017-Sep-20 13:00N 37°49' W 122°30'5 9.6
2017-Sep-20 12:30N 37°47' W 122°35'9 8.2
2017-Sep-20 11:22N 37°42' W 122°45'5 8.1
2017-Sep-20 10:45N 37°39' W 122°50'2 8.6
2017-Sep-20 10:30N 37°37' W 122°53'4 8.5
2017-Sep-20 10:00N 37°35' W 122°57'5 8.3
2017-Sep-20 09:26N 37°32' W 123°02'4 8.3
2017-Sep-20 09:00N 37°30' W 123°05'4 7.6
2017-Sep-20 08:30N 37°27' W 123°08'4 7.7
2017-Sep-20 07:56N 37°23' W 123°11'5 7.8
2017-Sep-20 07:19N 37°19' W 123°14'2 8.0
2017-Sep-20 07:00N 37°17' W 123°15'4 8.0
2017-Sep-20 06:29N 37°13' W 123°17'4 7.9
2017-Sep-20 05:56N 37°08' W 123°18'3 7.9
2017-Sep-20 05:30N 37°05' W 123°19'4 8.1
2017-Sep-20 05:00N 37°01' W 123°20'18 7.9
2017-Sep-20 02:41N 36°43' W 123°22'138 7.9
2017-Sep-19 09:16N 34°41' W 122°02'2 7.5
2017-Sep-19 09:01N 34°39' W 122°01'5 7.9
2017-Sep-19 08:23N 34°35' W 121°58'5 7.9
2017-Sep-19 07:48N 34°31' W 121°55'3 7.8
2017-Sep-19 07:26N 34°29' W 121°53'4 7.9
2017-Sep-19 06:58N 34°25' W 121°51'4 8.2
2017-Sep-19 06:29N 34°22' W 121°49'4 8.2
2017-Sep-19 05:58N 34°18' W 121°47'4 8.3
2017-Sep-19 05:30N 34°15' W 121°44'4 8.4
2017-Sep-19 05:01N 34°11' W 121°42'4 8.4
2017-Sep-19 04:30N 34°08' W 121°39'4 8.4
2017-Sep-19 04:00N 34°04' W 121°37'4 8.5
2017-Sep-19 03:30N 34°01' W 121°34'4 8.8
2017-Sep-19 03:00N 33°57' W 121°31'4 8.0
2017-Sep-19 02:31N 33°55' W 121°27'4 8.3
2017-Sep-19 02:01N 33°53' W 121°22'4 8.4
2017-Sep-19 01:30N 33°52' W 121°17'4 8.2
2017-Sep-19 01:00N 33°51' W 121°12'4 8.0
2017-Sep-19 00:30N 33°50' W 121°08'4 8.0
2017-Sep-19 00:00N 33°49' W 121°03'4 7.9
2017-Sep-18 23:30N 33°48' W 120°58'4 8.2
2017-Sep-18 23:01N 33°47' W 120°54'4 8.2
2017-Sep-18 22:30N 33°46' W 120°49'4 8.2
2017-Sep-18 22:01N 33°46' W 120°44'4 7.8
2017-Sep-18 21:30N 33°45' W 120°39'4 7.8
2017-Sep-18 21:00N 33°45' W 120°35'4 8.0
2017-Sep-18 20:30N 33°45' W 120°30'4 7.7
2017-Sep-18 20:01N 33°45' W 120°25'4 7.9
2017-Sep-18 19:30N 33°44' W 120°20'4 8.3
2017-Sep-18 18:59N 33°44' W 120°15'4 8.7
2017-Sep-18 18:30N 33°44' W 120°10'5 9.2
2017-Sep-18 17:58N 33°44' W 120°04'4 8.8
2017-Sep-18 17:30N 33°43' W 119°59'4 8.4
2017-Sep-18 17:00N 33°43' W 119°54'5 8.8
2017-Sep-18 16:29N 33°43' W 119°49'4 8.8
2017-Sep-18 16:00N 33°42' W 119°44'4 8.7
2017-Sep-18 15:30N 33°42' W 119°39'4 8.6
2017-Sep-18 15:00N 33°42' W 119°34'4 8.4
2017-Sep-18 14:30N 33°42' W 119°28'4 8.6
2017-Sep-18 14:00N 33°42' W 119°23'4 8.5
2017-Sep-18 13:30N 33°41' W 119°18'4 8.7
2017-Sep-18 13:00N 33°41' W 119°13'4 8.4
2017-Sep-18 12:29N 33°41' W 119°08'4 8.9
2017-Sep-18 12:00N 33°41' W 119°03'4 8.8
2017-Sep-18 11:30N 33°40' W 118°57'4 8.3
2017-Sep-18 11:01N 33°40' W 118°52'4 8.5
2017-Sep-18 10:30N 33°40' W 118°47'4 8.8
2017-Sep-18 10:01N 33°39' W 118°42'4 9.0
2017-Sep-18 09:30N 33°39' W 118°37'4 8.8
2017-Sep-18 09:00N 33°38' W 118°31'4 7.8
2017-Sep-18 08:30N 33°36' W 118°27'5 8.4
2017-Sep-18 07:58N 33°36' W 118°22'4 9.1
2017-Sep-18 07:29N 33°38' W 118°17'4 8.9
2017-Sep-18 07:00N 33°42' W 118°15'3 5.9
2017-Sep-18 06:28N 33°45' W 118°16'1 1.5
2017-Sep-18 06:00N 33°46' W 118°16'0 0.0
2017-Sep-18 05:29N 33°46' W 118°16'0 0.0
2017-Sep-18 05:00N 33°46' W 118°16'0 0.0
2017-Sep-18 04:28N 33°46' W 118°16'0 0.0
2017-Sep-18 03:58N 33°46' W 118°16'0 0.0
2017-Sep-18 03:30N 33°46' W 118°16'0 0.0
2017-Sep-18 03:00N 33°46' W 118°16'0 0.0
2017-Sep-18 02:31N 33°46' W 118°16'0 0.0
2017-Sep-18 02:00N 33°46' W 118°16'0 0.0
2017-Sep-18 01:30N 33°46' W 118°16'0 0.0
2017-Sep-18 01:01N 33°46' W 118°16'0 0.0
2017-Sep-18 00:29N 33°46' W 118°16'0 0.0
2017-Sep-18 00:01N 33°46' W 118°16'0 0.0
2017-Sep-17 23:30N 33°46' W 118°16'0 0.0
2017-Sep-17 23:00N 33°46' W 118°16'0 0.0
2017-Sep-17 22:30N 33°46' W 118°16'0 0.0
2017-Sep-17 22:00N 33°46' W 118°16'0 0.0
2017-Sep-17 21:30N 33°46' W 118°16'0 0.0
2017-Sep-17 20:59N 33°46' W 118°16'0 0.0
2017-Sep-17 20:30N 33°46' W 118°16'0 0.0
2017-Sep-17 20:00N 33°46' W 118°16'0 0.0
2017-Sep-17 19:30N 33°46' W 118°16'0 0.0
2017-Sep-17 18:59N 33°46' W 118°16'0 0.0
2017-Sep-17 18:29N 33°46' W 118°16'0 0.0
2017-Sep-17 18:00N 33°46' W 118°16'0 0.0
2017-Sep-17 17:30N 33°46' W 118°16'0 0.0
2017-Sep-17 16:56N 33°46' W 118°16'0 0.0
2017-Sep-17 16:27N 33°46' W 118°16'0 0.0
2017-Sep-17 15:58N 33°46' W 118°16'0 0.0
2017-Sep-17 15:29N 33°46' W 118°16'0 0.0
2017-Sep-17 14:58N 33°46' W 118°16'0 0.0
2017-Sep-17 14:30N 33°46' W 118°16'0 0.0
2017-Sep-17 13:55N 33°46' W 118°16'0 0.0
2017-Sep-17 13:30N 33°46' W 118°16'0 0.0
2017-Sep-17 12:59N 33°46' W 118°16'0 0.0
2017-Sep-17 12:30N 33°46' W 118°16'0 0.0
2017-Sep-17 11:59N 33°46' W 118°16'0 0.0
2017-Sep-17 11:29N 33°46' W 118°16'0 0.0
2017-Sep-17 10:56N 33°46' W 118°16'0 0.0
2017-Sep-17 10:29N 33°46' W 118°16'0 0.0
2017-Sep-17 10:01N 33°46' W 118°16'0 0.0
2017-Sep-17 09:30N 33°46' W 118°16'0 0.0
2017-Sep-17 09:00N 33°46' W 118°16'0 0.0
2017-Sep-17 08:30N 33°46' W 118°16'0 0.0
2017-Sep-17 08:00N 33°46' W 118°16'0 0.0
2017-Sep-17 07:31N 33°46' W 118°16'0 0.0
2017-Sep-17 07:00N 33°46' W 118°16'0 0.0
2017-Sep-17 06:30N 33°46' W 118°16'0 0.0
2017-Sep-17 06:00N 33°46' W 118°16'0 0.0
2017-Sep-17 05:30N 33°46' W 118°16'0 0.0
2017-Sep-17 05:01N 33°46' W 118°16'0 0.0
2017-Sep-17 04:29N 33°46' W 118°16'0 0.0
2017-Sep-17 03:59N 33°46' W 118°16'0 0.0
2017-Sep-17 03:31N 33°46' W 118°16'0 0.0
2017-Sep-17 03:00N 33°46' W 118°16'0 0.0
2017-Sep-17 02:30N 33°46' W 118°16'0 0.0
2017-Sep-17 02:00N 33°46' W 118°16'0 0.0
2017-Sep-17 01:31N 33°46' W 118°16'0 0.0
2017-Sep-17 01:00N 33°46' W 118°16'0 0.0
2017-Sep-17 00:30N 33°46' W 118°16'0 0.0
2017-Sep-17 00:00N 33°46' W 118°16'0 0.0
2017-Sep-16 23:31N 33°46' W 118°16'0 0.0
2017-Sep-16 23:00N 33°46' W 118°16'0 0.0
2017-Sep-16 22:30N 33°46' W 118°16'0 0.0
2017-Sep-16 22:00N 33°46' W 118°16'0 0.0
2017-Sep-16 21:30N 33°46' W 118°16'0 0.0
2017-Sep-16 21:00N 33°46' W 118°16'0 0.0
2017-Sep-16 20:29N 33°46' W 118°16'0 0.0
2017-Sep-16 20:00N 33°46' W 118°16'0 0.0
2017-Sep-16 19:31N 33°46' W 118°16'0 0.0
2017-Sep-16 19:00N 33°46' W 118°16'0 0.0
2017-Sep-16 18:31N 33°46' W 118°16'0 0.0
2017-Sep-16 18:00N 33°46' W 118°16'0 0.0
2017-Sep-16 17:30N 33°46' W 118°16'0 0.0
2017-Sep-16 16:59N 33°46' W 118°16'0 0.0
2017-Sep-16 16:30N 33°46' W 118°16'0 0.0
2017-Sep-16 16:00N 33°46' W 118°16'0 0.0
2017-Sep-16 15:28N 33°46' W 118°16'0 0.0
2017-Sep-16 15:00N 33°46' W 118°16'0 0.0
2017-Sep-16 14:30N 33°46' W 118°16'0 0.0
2017-Sep-16 14:00N 33°46' W 118°16'0 0.0
2017-Sep-16 13:30N 33°46' W 118°16'0 0.0
2017-Sep-16 13:00N 33°46' W 118°16'0 0.0
2017-Sep-16 12:30N 33°46' W 118°16'0 0.0
2017-Sep-16 12:00N 33°46' W 118°16'0 0.0
2017-Sep-16 11:30N 33°46' W 118°16'0 0.0
2017-Sep-16 11:00N 33°46' W 118°16'0 0.0
2017-Sep-16 10:29N 33°46' W 118°16'0 0.0
2017-Sep-16 10:01N 33°46' W 118°16'0 0.0
2017-Sep-16 09:30N 33°46' W 118°16'0 0.0
2017-Sep-16 09:00N 33°46' W 118°16'0 0.0
2017-Sep-16 08:30N 33°46' W 118°16'0 0.0
2017-Sep-16 08:00N 33°46' W 118°16'0 0.0
2017-Sep-16 07:30N 33°46' W 118°16'0 0.0
2017-Sep-16 07:00N 33°46' W 118°16'0 0.0
2017-Sep-16 06:31N 33°46' W 118°16'0 0.0
2017-Sep-16 06:00N 33°46' W 118°16'0 0.0
2017-Sep-16 05:30N 33°46' W 118°16'0 0.0
2017-Sep-16 05:00N 33°46' W 118°16'0 0.0
2017-Sep-16 04:31N 33°46' W 118°16'0 0.0
2017-Sep-16 04:00N 33°46' W 118°16'0 0.0
2017-Sep-16 03:30N 33°46' W 118°16'0 0.0
2017-Sep-16 03:01N 33°46' W 118°16'0 0.0
2017-Sep-16 02:31N 33°46' W 118°16'0 0.0
2017-Sep-16 02:00N 33°46' W 118°16'0 0.0
2017-Sep-16 01:30N 33°46' W 118°16'0 0.0
2017-Sep-16 01:00N 33°46' W 118°16'0 0.0
2017-Sep-16 00:30N 33°46' W 118°16'0 0.0
2017-Sep-16 00:00N 33°46' W 118°16'0 0.0
2017-Sep-15 23:30N 33°46' W 118°16'0 0.0
2017-Sep-15 23:00N 33°46' W 118°16'0 0.0
2017-Sep-15 22:30N 33°46' W 118°16'0 0.0
2017-Sep-15 22:00N 33°46' W 118°16'0 0.0
2017-Sep-15 21:31N 33°46' W 118°16'0 0.0
2017-Sep-15 21:00N 33°46' W 118°16'0 0.0
2017-Sep-15 20:30N 33°46' W 118°16'0 0.0
2017-Sep-15 20:00N 33°46' W 118°16'0 0.0
2017-Sep-15 19:30N 33°46' W 118°16'0 0.0
2017-Sep-15 19:00N 33°46' W 118°16'0 0.0
2017-Sep-15 18:30N 33°46' W 118°16'0 0.0
2017-Sep-15 18:00N 33°46' W 118°16'0 0.0
2017-Sep-15 17:30N 33°46' W 118°16'1 2.0
2017-Sep-15 17:00N 33°45' W 118°17'3 6.3
2017-Sep-15 16:30N 33°42' W 118°15'4 8.4
2017-Sep-15 16:00N 33°38' W 118°16'16 9.7
2017-Sep-15 14:22N 33°36' W 118°35'410.6
2017-Sep-15 14:00N 33°36' W 118°40'510.3
2017-Sep-15 13:30N 33°37' W 118°46'510.6
2017-Sep-15 13:00N 33°37' W 118°52'510.2
2017-Sep-15 12:30N 33°37' W 118°58'510.1
2017-Sep-15 12:00N 33°38' W 119°04'510.2
2017-Sep-15 11:31N 33°38' W 119°10'510.3
2017-Sep-15 11:00N 33°39' W 119°16'611.2
2017-Sep-15 10:30N 33°39' W 119°23'611.7
2017-Sep-15 10:00N 33°40' W 119°30'611.0
2017-Sep-15 09:30N 33°40' W 119°37'612.0
2017-Sep-15 09:00N 33°41' W 119°44'611.7
2017-Sep-15 08:30N 33°41' W 119°51'611.8
2017-Sep-15 08:00N 33°42' W 119°58'611.8
2017-Sep-15 07:30N 33°43' W 120°05'611.8
2017-Sep-15 06:58N 33°43' W 120°13'511.6
2017-Sep-15 06:30N 33°44' W 120°19'611.7
2017-Sep-15 06:00N 33°44' W 120°26'611.8
2017-Sep-15 05:30N 33°45' W 120°33'611.5
2017-Sep-15 05:00N 33°45' W 120°40'611.7
2017-Sep-15 04:30N 33°46' W 120°47'612.1
2017-Sep-15 04:00N 33°47' W 120°54'612.1
2017-Sep-15 03:30N 33°49' W 121°01'611.6
2017-Sep-15 02:59N 33°50' W 121°08'611.5
2017-Sep-15 02:30N 33°51' W 121°15'611.2
2017-Sep-15 02:01N 33°54' W 121°21'611.5
2017-Sep-15 01:30N 33°58' W 121°26'611.4
2017-Sep-15 01:00N 34°01' W 121°31'611.4
2017-Sep-15 00:30N 34°05' W 121°36'1211.5
2017-Sep-14 23:29N 34°15' W 121°44'711.9
2017-Sep-14 22:53N 34°21' W 121°48'811.9
2017-Sep-14 22:13N 34°28' W 121°53'212.0
2017-Sep-14 22:00N 34°30' W 121°55'611.9
2017-Sep-14 21:30N 34°36' W 121°58'611.8
2017-Sep-14 21:00N 34°41' W 122°02'612.0
2017-Sep-14 20:30N 34°46' W 122°05'612.0
2017-Sep-14 20:00N 34°51' W 122°09'611.9
2017-Sep-14 19:30N 34°56' W 122°13'611.9
2017-Sep-14 18:59N 35°01' W 122°17'612.2
2017-Sep-14 18:30N 35°06' W 122°21'1012.1
2017-Sep-14 17:40N 35°15' W 122°27'212.3
2017-Sep-14 17:30N 35°17' W 122°28'612.0
2017-Sep-14 17:01N 35°22' W 122°32'611.9
2017-Sep-14 16:28N 35°27' W 122°36'8711.4
2017-Sep-14 08:49N 36°45' W 123°24'411.7
2017-Sep-14 08:28N 36°49' W 123°27'611.5
2017-Sep-14 07:59N 36°54' W 123°29'911.1
2017-Sep-14 07:12N 37°02' W 123°26'511.8
2017-Sep-14 06:47N 37°07' W 123°23'2712.0
2017-Sep-14 04:32N 37°31' W 123°07'  
Track history (hours):
 
Tides and Currents Weather Stations Pressure Air Temp Water Temp Dewpoint Dewpoint Depression Visibility Wind Speed Wind Dir Waves Ship Positions

Sea Reliance

Owner: Intrepid Ship Management, Seattle, WA. More information available from US FCC via Universal Licensing System and Coast Guard Vessel Documentation Center.

Last reported at 2017-Sep-24 04:30 UTC. Time now 2017-Sep-24 04:56 UTC.
Position N 37°46' W 122°21'.

Type: Ship. MMSI: 369567000.

Date/timePositionNaut miles runAvg speedWind from/ knotsBaromVisibWave heightAir tempDewpointWater temp
2017-Sep-24 04:30N 37°46' W 122°21'0 0.0
2017-Sep-24 04:00N 37°46' W 122°21'0 0.0
2017-Sep-24 03:30N 37°46' W 122°21'0 0.0
2017-Sep-24 03:00N 37°46' W 122°21'0 0.0
2017-Sep-24 02:30N 37°46' W 122°21'0 0.0
2017-Sep-24 02:00N 37°46' W 122°21'0 0.0
2017-Sep-24 01:30N 37°46' W 122°21'0 0.0
2017-Sep-24 01:00N 37°46' W 122°21'0 0.0
2017-Sep-24 00:30N 37°46' W 122°21'0 0.1
2017-Sep-24 00:00N 37°46' W 122°21'0 0.1
2017-Sep-23 23:30N 37°46' W 122°21'0 0.1
2017-Sep-23 22:57N 37°46' W 122°21'0 0.3
2017-Sep-23 22:30N 37°46' W 122°21'0 0.1
2017-Sep-23 22:00N 37°46' W 122°21'0 0.0
2017-Sep-23 21:30N 37°46' W 122°21'0 0.0
2017-Sep-23 21:00N 37°46' W 122°21'0 0.0
2017-Sep-23 20:30N 37°46' W 122°21'0 0.0
2017-Sep-23 20:00N 37°46' W 122°21'  
2017-Sep-21 05:07N 38°02' W 122°08'2 5.2
2017-Sep-21 04:45N 38°03' W 122°11'2 9.7
2017-Sep-21 04:30N 38°04' W 122°13'5 9.9
2017-Sep-21 04:01N 38°03' W 122°20'610.2
2017-Sep-21 03:28N 37°60' W 122°25'4 8.6
2017-Sep-21 03:00N 37°56' W 122°26'5 9.6
2017-Sep-21 02:31N 37°51' W 122°25'510.2
2017-Sep-21 02:00N 37°47' W 122°21'1 1.6
2017-Sep-21 01:30N 37°46' W 122°20'0 0.0
2017-Sep-21 00:58N 37°46' W 122°20'0 0.0
2017-Sep-21 00:28N 37°46' W 122°20'0 0.0
2017-Sep-20 23:58N 37°46' W 122°20'0 0.0
2017-Sep-20 23:28N 37°46' W 122°20'0 0.0
2017-Sep-20 22:58N 37°46' W 122°20'0 0.0
2017-Sep-20 22:28N 37°46' W 122°20'0 0.0
2017-Sep-20 21:58N 37°46' W 122°20'0 0.0
2017-Sep-20 21:28N 37°46' W 122°20'0 0.4
2017-Sep-20 20:58N 37°46' W 122°20'0 0.1
2017-Sep-20 20:28N 37°46' W 122°20'0 0.0
2017-Sep-20 19:58N 37°46' W 122°20'0 0.0
2017-Sep-20 19:28N 37°46' W 122°20'0 0.0
2017-Sep-20 18:58N 37°46' W 122°20'0 0.0
2017-Sep-20 18:25N 37°46' W 122°20'0 0.0
2017-Sep-20 17:58N 37°46' W 122°20'0 0.0
2017-Sep-20 17:28N 37°46' W 122°20'0 0.0
2017-Sep-20 16:58N 37°46' W 122°20'0 0.0
2017-Sep-20 16:28N 37°46' W 122°20'0 0.0
2017-Sep-20 15:58N 37°46' W 122°20'0 0.0
2017-Sep-20 15:28N 37°46' W 122°20'0 0.0
2017-Sep-20 14:58N 37°46' W 122°20'0 0.2
2017-Sep-20 14:00N 37°46' W 122°20'4 7.7
2017-Sep-20 13:30N 37°49' W 122°24'4 8.9
2017-Sep-20 13:00N 37°49' W 122°30'5 9.6
2017-Sep-20 12:30N 37°47' W 122°35'9 8.2
2017-Sep-20 11:22N 37°42' W 122°45'5 8.1
2017-Sep-20 10:45N 37°39' W 122°50'2 8.6
2017-Sep-20 10:30N 37°37' W 122°53'4 8.5
2017-Sep-20 10:00N 37°35' W 122°57'5 8.3
2017-Sep-20 09:26N 37°32' W 123°02'4 8.3
2017-Sep-20 09:00N 37°30' W 123°05'4 7.6
2017-Sep-20 08:30N 37°27' W 123°08'4 7.7
2017-Sep-20 07:56N 37°23' W 123°11'5 7.8
2017-Sep-20 07:19N 37°19' W 123°14'2 8.0
2017-Sep-20 07:00N 37°17' W 123°15'4 8.0
2017-Sep-20 06:29N 37°13' W 123°17'4 7.9
2017-Sep-20 05:56N 37°08' W 123°18'3 7.9
2017-Sep-20 05:30N 37°05' W 123°19'4 8.1
2017-Sep-20 05:00N 37°01' W 123°20'18 7.9
2017-Sep-20 02:41N 36°43' W 123°22'138 7.9
2017-Sep-19 09:16N 34°41' W 122°02'2 7.5
2017-Sep-19 09:01N 34°39' W 122°01'5 7.9
2017-Sep-19 08:23N 34°35' W 121°58'5 7.9
2017-Sep-19 07:48N 34°31' W 121°55'3 7.8
2017-Sep-19 07:26N 34°29' W 121°53'4 7.9
2017-Sep-19 06:58N 34°25' W 121°51'4 8.2
2017-Sep-19 06:29N 34°22' W 121°49'4 8.2
2017-Sep-19 05:58N 34°18' W 121°47'4 8.3
2017-Sep-19 05:30N 34°15' W 121°44'4 8.4
2017-Sep-19 05:01N 34°11' W 121°42'4 8.4
2017-Sep-19 04:30N 34°08' W 121°39'4 8.4
2017-Sep-19 04:00N 34°04' W 121°37'4 8.5
2017-Sep-19 03:30N 34°01' W 121°34'4 8.8
2017-Sep-19 03:00N 33°57' W 121°31'4 8.0
2017-Sep-19 02:31N 33°55' W 121°27'4 8.3
2017-Sep-19 02:01N 33°53' W 121°22'4 8.4
2017-Sep-19 01:30N 33°52' W 121°17'4 8.2
2017-Sep-19 01:00N 33°51' W 121°12'4 8.0
2017-Sep-19 00:30N 33°50' W 121°08'4 8.0
2017-Sep-19 00:00N 33°49' W 121°03'4 7.9
2017-Sep-18 23:30N 33°48' W 120°58'4 8.2
2017-Sep-18 23:01N 33°47' W 120°54'4 8.2
2017-Sep-18 22:30N 33°46' W 120°49'4 8.2
2017-Sep-18 22:01N 33°46' W 120°44'4 7.8
2017-Sep-18 21:30N 33°45' W 120°39'4 7.8
2017-Sep-18 21:00N 33°45' W 120°35'4 8.0
2017-Sep-18 20:30N 33°45' W 120°30'4 7.7
2017-Sep-18 20:01N 33°45' W 120°25'4 7.9
2017-Sep-18 19:30N 33°44' W 120°20'4 8.3
2017-Sep-18 18:59N 33°44' W 120°15'4 8.7
2017-Sep-18 18:30N 33°44' W 120°10'5 9.2
2017-Sep-18 17:58N 33°44' W 120°04'4 8.8
2017-Sep-18 17:30N 33°43' W 119°59'4 8.4
2017-Sep-18 17:00N 33°43' W 119°54'5 8.8
2017-Sep-18 16:29N 33°43' W 119°49'4 8.8
2017-Sep-18 16:00N 33°42' W 119°44'4 8.7
2017-Sep-18 15:30N 33°42' W 119°39'4 8.6
2017-Sep-18 15:00N 33°42' W 119°34'4 8.4
2017-Sep-18 14:30N 33°42' W 119°28'4 8.6
2017-Sep-18 14:00N 33°42' W 119°23'4 8.5
2017-Sep-18 13:30N 33°41' W 119°18'4 8.7
2017-Sep-18 13:00N 33°41' W 119°13'4 8.4
2017-Sep-18 12:29N 33°41' W 119°08'4 8.9
2017-Sep-18 12:00N 33°41' W 119°03'4 8.8
2017-Sep-18 11:30N 33°40' W 118°57'4 8.3
2017-Sep-18 11:01N 33°40' W 118°52'4 8.5
2017-Sep-18 10:30N 33°40' W 118°47'4 8.8
2017-Sep-18 10:01N 33°39' W 118°42'4 9.0
2017-Sep-18 09:30N 33°39' W 118°37'4 8.8
2017-Sep-18 09:00N 33°38' W 118°31'4 7.8
2017-Sep-18 08:30N 33°36' W 118°27'5 8.4
2017-Sep-18 07:58N 33°36' W 118°22'4 9.1
2017-Sep-18 07:29N 33°38' W 118°17'4 8.9
2017-Sep-18 07:00N 33°42' W 118°15'3 5.9
2017-Sep-18 06:28N 33°45' W 118°16'1 1.5
2017-Sep-18 06:00N 33°46' W 118°16'0 0.0
2017-Sep-18 05:29N 33°46' W 118°16'0 0.0
2017-Sep-18 05:00N 33°46' W 118°16'0 0.0
2017-Sep-18 04:28N 33°46' W 118°16'0 0.0
2017-Sep-18 03:58N 33°46' W 118°16'0 0.0
2017-Sep-18 03:30N 33°46' W 118°16'0 0.0
2017-Sep-18 03:00N 33°46' W 118°16'0 0.0
2017-Sep-18 02:31N 33°46' W 118°16'0 0.0
2017-Sep-18 02:00N 33°46' W 118°16'0 0.0
2017-Sep-18 01:30N 33°46' W 118°16'0 0.0
2017-Sep-18 01:01N 33°46' W 118°16'0 0.0
2017-Sep-18 00:29N 33°46' W 118°16'0 0.0
2017-Sep-18 00:01N 33°46' W 118°16'0 0.0
2017-Sep-17 23:30N 33°46' W 118°16'0 0.0
2017-Sep-17 23:00N 33°46' W 118°16'0 0.0
2017-Sep-17 22:30N 33°46' W 118°16'0 0.0
2017-Sep-17 22:00N 33°46' W 118°16'0 0.0
2017-Sep-17 21:30N 33°46' W 118°16'0 0.0
2017-Sep-17 20:59N 33°46' W 118°16'0 0.0
2017-Sep-17 20:30N 33°46' W 118°16'0 0.0
2017-Sep-17 20:00N 33°46' W 118°16'0 0.0
2017-Sep-17 19:30N 33°46' W 118°16'0 0.0
2017-Sep-17 18:59N 33°46' W 118°16'0 0.0
2017-Sep-17 18:29N 33°46' W 118°16'0 0.0
2017-Sep-17 18:00N 33°46' W 118°16'0 0.0
2017-Sep-17 17:30N 33°46' W 118°16'0 0.0
2017-Sep-17 16:56N 33°46' W 118°16'0 0.0
2017-Sep-17 16:27N 33°46' W 118°16'0 0.0
2017-Sep-17 15:58N 33°46' W 118°16'0 0.0
2017-Sep-17 15:29N 33°46' W 118°16'0 0.0
2017-Sep-17 14:58N 33°46' W 118°16'0 0.0
2017-Sep-17 14:30N 33°46' W 118°16'0 0.0
2017-Sep-17 13:55N 33°46' W 118°16'0 0.0
2017-Sep-17 13:30N 33°46' W 118°16'0 0.0
2017-Sep-17 12:59N 33°46' W 118°16'0 0.0
2017-Sep-17 12:30N 33°46' W 118°16'0 0.0
2017-Sep-17 11:59N 33°46' W 118°16'0 0.0
2017-Sep-17 11:29N 33°46' W 118°16'0 0.0
2017-Sep-17 10:56N 33°46' W 118°16'0 0.0
2017-Sep-17 10:29N 33°46' W 118°16'0 0.0
2017-Sep-17 10:01N 33°46' W 118°16'0 0.0
2017-Sep-17 09:30N 33°46' W 118°16'0 0.0
2017-Sep-17 09:00N 33°46' W 118°16'0 0.0
2017-Sep-17 08:30N 33°46' W 118°16'0 0.0
2017-Sep-17 08:00N 33°46' W 118°16'0 0.0
2017-Sep-17 07:31N 33°46' W 118°16'0 0.0
2017-Sep-17 07:00N 33°46' W 118°16'0 0.0
2017-Sep-17 06:30N 33°46' W 118°16'0 0.0
2017-Sep-17 06:00N 33°46' W 118°16'0 0.0
2017-Sep-17 05:30N 33°46' W 118°16'0 0.0
2017-Sep-17 05:01N 33°46' W 118°16'0 0.0
2017-Sep-17 04:29N 33°46' W 118°16'0 0.0
2017-Sep-17 03:59N 33°46' W 118°16'0 0.0
2017-Sep-17 03:31N 33°46' W 118°16'0 0.0
2017-Sep-17 03:00N 33°46' W 118°16'0 0.0
2017-Sep-17 02:30N 33°46' W 118°16'0 0.0
2017-Sep-17 02:00N 33°46' W 118°16'0 0.0
2017-Sep-17 01:31N 33°46' W 118°16'0 0.0
2017-Sep-17 01:00N 33°46' W 118°16'0 0.0
2017-Sep-17 00:30N 33°46' W 118°16'0 0.0
2017-Sep-17 00:00N 33°46' W 118°16'0 0.0
2017-Sep-16 23:31N 33°46' W 118°16'0 0.0
2017-Sep-16 23:00N 33°46' W 118°16'0 0.0
2017-Sep-16 22:30N 33°46' W 118°16'0 0.0
2017-Sep-16 22:00N 33°46' W 118°16'0 0.0
2017-Sep-16 21:30N 33°46' W 118°16'0 0.0
2017-Sep-16 21:00N 33°46' W 118°16'0 0.0
2017-Sep-16 20:29N 33°46' W 118°16'0 0.0
2017-Sep-16 20:00N 33°46' W 118°16'0 0.0
2017-Sep-16 19:31N 33°46' W 118°16'0 0.0
2017-Sep-16 19:00N 33°46' W 118°16'0 0.0
2017-Sep-16 18:31N 33°46' W 118°16'0 0.0
2017-Sep-16 18:00N 33°46' W 118°16'0 0.0
2017-Sep-16 17:30N 33°46' W 118°16'0 0.0
2017-Sep-16 16:59N 33°46' W 118°16'0 0.0
2017-Sep-16 16:30N 33°46' W 118°16'0 0.0
2017-Sep-16 16:00N 33°46' W 118°16'0 0.0
2017-Sep-16 15:28N 33°46' W 118°16'0 0.0
2017-Sep-16 15:00N 33°46' W 118°16'0 0.0
2017-Sep-16 14:30N 33°46' W 118°16'0 0.0
2017-Sep-16 14:00N 33°46' W 118°16'0 0.0
2017-Sep-16 13:30N 33°46' W 118°16'0 0.0
2017-Sep-16 13:00N 33°46' W 118°16'0 0.0
2017-Sep-16 12:30N 33°46' W 118°16'0 0.0
2017-Sep-16 12:00N 33°46' W 118°16'0 0.0
2017-Sep-16 11:30N 33°46' W 118°16'0 0.0
2017-Sep-16 11:00N 33°46' W 118°16'0 0.0
2017-Sep-16 10:29N 33°46' W 118°16'0 0.0
2017-Sep-16 10:01N 33°46' W 118°16'0 0.0
2017-Sep-16 09:30N 33°46' W 118°16'0 0.0
2017-Sep-16 09:00N 33°46' W 118°16'0 0.0
2017-Sep-16 08:30N 33°46' W 118°16'0 0.0
2017-Sep-16 08:00N 33°46' W 118°16'0 0.0
2017-Sep-16 07:30N 33°46' W 118°16'0 0.0
2017-Sep-16 07:00N 33°46' W 118°16'0 0.0
2017-Sep-16 06:31N 33°46' W 118°16'0 0.0
2017-Sep-16 06:00N 33°46' W 118°16'0 0.0
2017-Sep-16 05:30N 33°46' W 118°16'0 0.0
2017-Sep-16 05:00N 33°46' W 118°16'0 0.0
2017-Sep-16 04:31N 33°46' W 118°16'0 0.0
2017-Sep-16 04:00N 33°46' W 118°16'0 0.0
2017-Sep-16 03:30N 33°46' W 118°16'0 0.0
2017-Sep-16 03:01N 33°46' W 118°16'0 0.0
2017-Sep-16 02:31N 33°46' W 118°16'0 0.0
2017-Sep-16 02:00N 33°46' W 118°16'0 0.0
2017-Sep-16 01:30N 33°46' W 118°16'0 0.0
2017-Sep-16 01:00N 33°46' W 118°16'0 0.0
2017-Sep-16 00:30N 33°46' W 118°16'0 0.0
2017-Sep-16 00:00N 33°46' W 118°16'0 0.0
2017-Sep-15 23:30N 33°46' W 118°16'0 0.0
2017-Sep-15 23:00N 33°46' W 118°16'0 0.0
2017-Sep-15 22:30N 33°46' W 118°16'0 0.0
2017-Sep-15 22:00N 33°46' W 118°16'0 0.0
2017-Sep-15 21:31N 33°46' W 118°16'0 0.0
2017-Sep-15 21:00N 33°46' W 118°16'0 0.0
2017-Sep-15 20:30N 33°46' W 118°16'0 0.0
2017-Sep-15 20:00N 33°46' W 118°16'0 0.0
2017-Sep-15 19:30N 33°46' W 118°16'0 0.0
2017-Sep-15 19:00N 33°46' W 118°16'0 0.0
2017-Sep-15 18:30N 33°46' W 118°16'0 0.0
2017-Sep-15 18:00N 33°46' W 118°16'0 0.0
2017-Sep-15 17:30N 33°46' W 118°16'1 2.0
2017-Sep-15 17:00N 33°45' W 118°17'3 6.3
2017-Sep-15 16:30N 33°42' W 118°15'4 8.4
2017-Sep-15 16:00N 33°38' W 118°16'16 9.7
2017-Sep-15 14:22N 33°36' W 118°35'410.6
2017-Sep-15 14:00N 33°36' W 118°40'510.3
2017-Sep-15 13:30N 33°37' W 118°46'510.6
2017-Sep-15 13:00N 33°37' W 118°52'510.2
2017-Sep-15 12:30N 33°37' W 118°58'510.1
2017-Sep-15 12:00N 33°38' W 119°04'510.2
2017-Sep-15 11:31N 33°38' W 119°10'510.3
2017-Sep-15 11:00N 33°39' W 119°16'611.2
2017-Sep-15 10:30N 33°39' W 119°23'611.7
2017-Sep-15 10:00N 33°40' W 119°30'611.0
2017-Sep-15 09:30N 33°40' W 119°37'612.0
2017-Sep-15 09:00N 33°41' W 119°44'611.7
2017-Sep-15 08:30N 33°41' W 119°51'611.8
2017-Sep-15 08:00N 33°42' W 119°58'611.8
2017-Sep-15 07:30N 33°43' W 120°05'611.8
2017-Sep-15 06:58N 33°43' W 120°13'511.6
2017-Sep-15 06:30N 33°44' W 120°19'611.7
2017-Sep-15 06:00N 33°44' W 120°26'611.8
2017-Sep-15 05:30N 33°45' W 120°33'611.5
2017-Sep-15 05:00N 33°45' W 120°40'611.7
2017-Sep-15 04:30N 33°46' W 120°47'612.1
2017-Sep-15 04:00N 33°47' W 120°54'612.1
2017-Sep-15 03:30N 33°49' W 121°01'611.6
2017-Sep-15 02:59N 33°50' W 121°08'611.5
2017-Sep-15 02:30N 33°51' W 121°15'611.2
2017-Sep-15 02:01N 33°54' W 121°21'611.5
2017-Sep-15 01:30N 33°58' W 121°26'611.4
2017-Sep-15 01:00N 34°01' W 121°31'611.4
2017-Sep-15 00:30N 34°05' W 121°36'1211.5
2017-Sep-14 23:29N 34°15' W 121°44'711.9
2017-Sep-14 22:53N 34°21' W 121°48'811.9
2017-Sep-14 22:13N 34°28' W 121°53'212.0
2017-Sep-14 22:00N 34°30' W 121°55'611.9
2017-Sep-14 21:30N 34°36' W 121°58'611.8
2017-Sep-14 21:00N 34°41' W 122°02'612.0
2017-Sep-14 20:30N 34°46' W 122°05'612.0
2017-Sep-14 20:00N 34°51' W 122°09'611.9
2017-Sep-14 19:30N 34°56' W 122°13'611.9
2017-Sep-14 18:59N 35°01' W 122°17'612.2
2017-Sep-14 18:30N 35°06' W 122°21'1012.1
2017-Sep-14 17:40N 35°15' W 122°27'212.3
2017-Sep-14 17:30N 35°17' W 122°28'612.0
2017-Sep-14 17:01N 35°22' W 122°32'611.9
2017-Sep-14 16:28N 35°27' W 122°36'8711.4
2017-Sep-14 08:49N 36°45' W 123°24'411.7
2017-Sep-14 08:28N 36°49' W 123°27'611.5
2017-Sep-14 07:59N 36°54' W 123°29'911.1
2017-Sep-14 07:12N 37°02' W 123°26'511.8
2017-Sep-14 06:47N 37°07' W 123°23'2712.0
2017-Sep-14 04:32N 37°31' W 123°07'  

Dump ship's entire track history